Time;durP1;ratioP1;P1;durP2;ratioP2;P2;SDS_P1;SDS_P2;PMS_P1;PMS_P2;Temp;Humidity;BMP_temperature;BMP_pressure;BME280_temperature;BME280_humidity;BME280_pressure;Samples;Min_cycle;Max_cycle;Signal;HPM_P1;HPM_P2
2021/09/26 00:00:24;;;;;;;9.63;8.43;;;15.50;99.90;;;;;;5013392;28;20609;-70
2021/09/26 00:02:50;;;;;;;6.97;6.27;;;15.50;99.90;;;;;;5013246;28;20170;-70
2021/09/26 00:05:16;;;;;;;9.80;7.30;;;15.60;99.90;;;;;;5013424;28;20423;-70
2021/09/26 00:07:42;;;;;;;8.47;7.27;;;15.50;99.90;;;;;;5013299;28;20261;-70
2021/09/26 00:10:10;;;;;;;9.27;7.53;;;15.40;99.90;;;;;;5013444;28;20950;-69
2021/09/26 00:12:36;;;;;;;10.93;8.13;;;15.40;99.90;;;;;;5013441;28;20399;-69
2021/09/26 00:15:08;;;;;;;10.97;7.37;;;15.30;99.90;;;;;;5013355;28;20517;-70
2021/09/26 00:17:36;;;;;;;8.37;7.40;;;15.30;99.90;;;;;;5013111;28;20453;-70
2021/09/26 00:20:03;;;;;;;7.80;6.97;;;15.30;99.90;;;;;;5012630;28;20443;-71
2021/09/26 00:22:28;;;;;;;10.17;7.67;;;15.30;99.90;;;;;;5012853;28;20968;-70
2021/09/26 00:24:53;;;;;;;9.30;7.93;;;15.30;99.90;;;;;;5012843;28;20498;-70
2021/09/26 00:27:19;;;;;;;10.13;7.10;;;15.30;99.90;;;;;;5012992;28;20161;-70
2021/09/26 00:29:44;;;;;;;8.40;6.60;;;15.40;99.90;;;;;;5012960;28;20185;-70
2021/09/26 00:32:10;;;;;;;9.97;7.13;;;15.60;99.90;;;;;;5012729;28;20180;-70
2021/09/26 00:34:36;;;;;;;8.73;7.80;;;15.60;99.90;;;;;;5012652;28;20169;-70
2021/09/26 00:37:02;;;;;;;11.03;7.90;;;15.50;99.90;;;;;;5012929;28;20259;-70
2021/09/26 00:39:28;;;;;;;11.27;8.70;;;15.60;99.90;;;;;;5012825;28;20401;-70
2021/09/26 00:41:54;;;;;;;12.43;8.57;;;15.70;99.90;;;;;;5012486;28;20457;-70
2021/09/26 00:44:20;;;;;;;14.40;8.77;;;15.70;99.90;;;;;;5011772;28;20415;-70
2021/09/26 00:46:46;;;;;;;9.50;7.50;;;15.60;99.90;;;;;;5012910;28;20870;-70
2021/09/26 00:49:11;;;;;;;10.93;8.63;;;15.60;99.90;;;;;;5012520;28;20166;-70
2021/09/26 00:51:37;;;;;;;10.90;9.20;;;15.70;99.90;;;;;;5012370;28;20197;-70
2021/09/26 00:54:03;;;;;;;12.50;9.77;;;15.70;99.90;;;;;;5012249;28;20705;-70
2021/09/26 00:56:31;;;;;;;12.53;9.47;;;15.70;99.90;;;;;;5012602;28;20575;-70
2021/09/26 00:58:58;;;;;;;10.47;9.30;;;15.70;99.90;;;;;;5012415;28;20418;-70
2021/09/26 01:01:24;;;;;;;12.77;8.77;;;15.70;99.90;;;;;;4994510;28;20992;-70
2021/09/26 01:03:50;;;;;;;12.70;9.17;;;15.70;99.90;;;;;;5012246;28;20405;-70
2021/09/26 01:06:22;;;;;;;13.97;10.00;;;15.70;99.90;;;;;;5012024;28;20185;-71
2021/09/26 01:09:08;;;;;;;11.97;9.70;;;15.70;99.90;;;;;;5012305;28;20416;-71
2021/09/26 01:11:54;;;;;;;11.43;9.40;;;15.80;99.90;;;;;;5012331;28;20401;-70
2021/09/26 01:14:26;;;;;;;11.40;8.97;;;15.80;99.90;;;;;;4992364;28;20405;-70
2021/09/26 01:17:20;;;;;;;10.80;7.87;;;16.00;99.90;;;;;;4975515;28;20490;-70
2021/09/26 01:20:37;;;;;;;13.57;9.37;;;16.00;99.90;;;;;;4992527;28;20410;-71
2021/09/26 01:23:05;;;;;;;10.97;8.87;;;15.90;99.90;;;;;;4992483;28;20485;-71
2021/09/26 01:25:41;;;;;;;11.10;9.30;;;15.90;99.90;;;;;;4992165;28;20439;-70
2021/09/26 01:28:25;;;;;;;11.23;9.10;;;15.90;99.90;;;;;;4992572;28;20883;-71
2021/09/26 01:31:19;;;;;;;15.20;10.23;;;15.90;99.90;;;;;;4992273;28;20409;-70
2021/09/26 01:33:58;;;;;;;12.87;9.23;;;16.00;99.90;;;;;;4992149;28;20775;-71
2021/09/26 01:36:32;;;;;;;12.10;9.63;;;16.00;99.90;;;;;;4992164;28;20431;-71
2021/09/26 01:39:05;;;;;;;9.93;8.43;;;15.90;99.90;;;;;;4995403;28;20928;-71
2021/09/26 01:41:43;;;;;;;11.10;8.70;;;15.80;99.90;;;;;;4994006;28;20471;-70
2021/09/26 01:44:35;;;;;;;11.83;8.70;;;15.80;99.90;;;;;;4993835;28;20420;-72
2021/09/26 01:47:03;;;;;;;11.60;8.47;;;15.70;99.90;;;;;;4996829;28;20412;-71
2021/09/26 01:49:34;;;;;;;11.17;8.80;;;15.80;99.90;;;;;;5011723;28;20877;-72
2021/09/26 01:52:01;;;;;;;9.80;8.00;;;15.80;99.90;;;;;;5011793;28;20854;-70
2021/09/26 01:54:27;;;;;;;9.77;7.87;;;15.80;99.90;;;;;;5011394;28;20868;-71
2021/09/26 01:56:53;;;;;;;9.43;8.17;;;15.80;99.90;;;;;;5011697;28;20770;-71
2021/09/26 01:59:22;;;;;;;10.57;8.20;;;15.80;99.90;;;;;;5011590;28;20486;-71
2021/09/26 02:01:48;;;;;;;9.63;7.40;;;15.80;99.90;;;;;;5011630;28;20469;-71
2021/09/26 02:04:17;;;;;;;10.43;7.97;;;15.80;99.90;;;;;;5011290;28;20424;-71
2021/09/26 02:06:42;;;;;;;9.00;8.07;;;15.80;99.90;;;;;;5011263;28;20195;-71
2021/09/26 02:09:10;;;;;;;8.73;7.27;;;15.90;99.90;;;;;;5011275;28;20847;-71
2021/09/26 02:11:36;;;;;;;9.60;7.73;;;15.90;99.90;;;;;;5011408;28;20173;-71
2021/09/26 02:14:04;;;;;;;10.67;8.30;;;15.90;99.90;;;;;;5011191;28;20422;-72
2021/09/26 02:16:30;;;;;;;10.57;7.77;;;15.90;99.90;;;;;;4993921;28;20471;-70
2021/09/26 02:19:00;;;;;;;9.10;7.87;;;15.90;99.90;;;;;;5011285;28;20932;-71
2021/09/26 02:21:28;;;;;;;10.70;8.63;;;15.80;99.90;;;;;;5011267;28;20205;-71
2021/09/26 02:23:54;;;;;;;10.43;9.40;;;16.10;99.90;;;;;;5011049;28;20523;-71
2021/09/26 02:26:20;;;;;;;9.23;8.17;;;16.10;99.90;;;;;;5011013;28;20949;-71
2021/09/26 02:28:46;;;;;;;12.20;8.90;;;16.30;99.90;;;;;;5011125;28;20415;-70
2021/09/26 02:31:13;;;;;;;8.27;7.03;;;16.10;99.90;;;;;;5011075;28;20408;-71
2021/09/26 02:33:40;;;;;;;10.20;8.57;;;16.00;99.90;;;;;;5011271;28;20271;-69
2021/09/26 02:36:06;;;;;;;12.37;8.43;;;16.00;99.90;;;;;;5010987;28;20841;-70
2021/09/26 02:38:33;;;;;;;12.03;9.30;;;15.90;99.90;;;;;;5011468;28;20420;-70
2021/09/26 02:41:14;;;;;;;9.10;8.20;;;15.80;99.90;;;;;;5010640;28;20457;-69
2021/09/26 02:43:50;;;;;;;9.17;8.27;;;15.90;99.90;;;;;;5010874;28;20417;-70
2021/09/26 02:46:29;;;;;;;11.87;9.37;;;15.90;99.90;;;;;;5011040;28;20423;-71
2021/09/26 02:48:55;;;;;;;10.90;8.00;;;15.90;99.90;;;;;;5011012;28;20483;-71
2021/09/26 02:51:23;;;;;;;10.67;8.83;;;15.80;99.90;;;;;;5011056;28;20535;-71
2021/09/26 02:53:49;;;;;;;7.87;6.60;;;15.80;99.90;;;;;;5010938;28;20426;-71
2021/09/26 02:56:15;;;;;;;12.60;9.53;;;15.80;99.90;;;;;;5011001;28;20453;-71
2021/09/26 02:58:43;;;;;;;10.60;8.63;;;15.80;99.90;;;;;;5010857;28;20475;-69
2021/09/26 03:01:09;;;;;;;8.73;7.30;;;15.90;99.90;;;;;;5010804;28;20201;-70
2021/09/26 03:03:35;;;;;;;10.33;8.93;;;15.80;99.90;;;;;;5010822;28;20412;-70
2021/09/26 03:06:03;;;;;;;12.00;9.67;;;15.80;99.90;;;;;;5011312;28;20228;-70
2021/09/26 03:08:31;;;;;;;10.27;8.00;;;15.80;99.90;;;;;;5014317;28;20260;-70
2021/09/26 03:11:00;;;;;;;11.20;8.20;;;15.90;99.90;;;;;;5014378;28;20409;-71
2021/09/26 03:13:26;;;;;;;8.80;7.30;;;15.90;99.90;;;;;;5014676;28;20467;-71
2021/09/26 03:15:51;;;;;;;8.97;7.83;;;15.90;99.90;;;;;;5014478;28;20438;-71
2021/09/26 03:18:20;;;;;;;11.83;8.90;;;16.00;99.90;;;;;;5014295;28;20456;-71
2021/09/26 03:20:51;;;;;;;10.30;8.70;;;16.00;99.90;;;;;;5014288;28;20217;-70
2021/09/26 03:23:17;;;;;;;8.63;7.70;;;16.00;99.90;;;;;;5014175;28;20791;-71
2021/09/26 03:25:43;;;;;;;13.87;8.10;;;16.00;99.90;;;;;;4995972;28;20817;-71
2021/09/26 03:28:08;;;;;;;10.10;9.10;;;16.00;99.90;;;;;;5014097;28;20599;-70
2021/09/26 03:30:34;;;;;;;9.30;7.40;;;16.10;99.90;;;;;;5013892;28;20591;-70
2021/09/26 03:33:00;;;;;;;8.47;6.67;;;16.10;99.90;;;;;;5014012;28;20256;-70
2021/09/26 03:35:27;;;;;;;9.00;7.37;;;16.00;99.90;;;;;;4996139;28;20754;-70
2021/09/26 03:37:53;;;;;;;10.90;8.80;;;16.00;99.90;;;;;;5014032;28;20190;-71
2021/09/26 03:40:18;;;;;;;10.60;8.43;;;16.00;99.90;;;;;;5013079;28;20512;-71
2021/09/26 03:42:46;;;;;;;9.33;7.70;;;16.00;99.90;;;;;;5013841;28;20257;-71
2021/09/26 03:45:13;;;;;;;8.33;7.47;;;16.00;99.90;;;;;;5012848;28;20201;-70
2021/09/26 03:47:39;;;;;;;10.00;8.50;;;16.00;99.90;;;;;;5013549;28;20834;-70
2021/09/26 03:50:06;;;;;;;10.10;7.57;;;16.00;99.90;;;;;;5013670;28;20422;-70
2021/09/26 03:52:34;;;;;;;9.03;8.23;;;16.00;99.90;;;;;;5013406;28;20479;-70
2021/09/26 03:55:00;;;;;;;9.57;7.30;;;16.00;99.90;;;;;;5013341;28;20437;-70
2021/09/26 03:57:26;;;;;;;9.03;8.10;;;16.00;99.90;;;;;;5013468;28;20429;-71
2021/09/26 03:59:51;;;;;;;13.10;9.40;;;16.00;99.90;;;;;;5013492;28;20961;-70
2021/09/26 04:02:20;;;;;;;8.87;7.63;;;16.10;99.90;;;;;;5013130;28;20179;-71
2021/09/26 04:04:49;;;;;;;9.47;8.50;;;16.10;99.90;;;;;;4996308;28;20233;-70
2021/09/26 04:07:14;;;;;;;8.20;7.10;;;16.10;99.90;;;;;;5013440;28;20403;-70
2021/09/26 04:09:40;;;;;;;9.47;7.63;;;16.00;99.90;;;;;;5013245;28;20970;-71
2021/09/26 04:12:05;;;;;;;8.30;6.90;;;16.10;99.90;;;;;;5013172;28;20239;-70
2021/09/26 04:14:31;;;;;;;8.83;7.83;;;16.00;99.90;;;;;;4995622;28;20355;-70
2021/09/26 04:16:56;;;;;;;7.27;6.63;;;16.00;99.90;;;;;;5013145;28;20170;-70
2021/09/26 04:19:22;;;;;;;8.20;6.53;;;16.00;99.90;;;;;;5012097;28;20255;-70
2021/09/26 04:21:50;;;;;;;7.73;6.77;;;16.00;99.90;;;;;;4995421;28;20210;-70
2021/09/26 04:24:16;;;;;;;7.57;6.77;;;16.00;99.90;;;;;;5012840;28;20227;-70
2021/09/26 04:26:41;;;;;;;10.27;6.80;;;16.00;99.90;;;;;;5012948;28;20510;-70
2021/09/26 04:29:07;;;;;;;8.10;7.30;;;16.00;99.90;;;;;;5012714;28;20645;-70
2021/09/26 04:31:32;;;;;;;8.40;6.73;;;16.00;99.90;;;;;;5012842;28;20646;-71
2021/09/26 04:33:58;;;;;;;7.17;6.47;;;16.00;99.90;;;;;;5012796;28;20214;-70
2021/09/26 04:36:26;;;;;;;8.87;6.80;;;15.90;99.90;;;;;;5012775;28;20196;-71
2021/09/26 04:38:51;;;;;;;8.77;7.97;;;15.90;99.90;;;;;;5012905;28;20201;-70
2021/09/26 04:41:18;;;;;;;8.20;7.10;;;15.90;99.90;;;;;;5012684;28;21043;-70
2021/09/26 04:43:43;;;;;;;8.33;7.03;;;15.90;99.90;;;;;;5012460;28;20195;-71
2021/09/26 04:46:09;;;;;;;8.07;6.73;;;15.90;99.90;;;;;;5012456;28;20520;-71
2021/09/26 04:48:34;;;;;;;9.50;8.37;;;15.90;99.90;;;;;;5012643;28;20173;-70
2021/09/26 04:51:00;;;;;;;9.70;7.40;;;15.90;99.90;;;;;;5012448;28;20176;-70
2021/09/26 04:53:25;;;;;;;8.00;7.20;;;15.90;99.90;;;;;;5012217;28;20255;-71
2021/09/26 04:55:51;;;;;;;8.57;7.17;;;15.90;99.90;;;;;;5012637;28;20628;-71
2021/09/26 04:58:16;;;;;;;7.33;6.60;;;15.90;99.90;;;;;;5012338;28;20419;-71
2021/09/26 05:00:42;;;;;;;7.67;6.93;;;15.90;99.90;;;;;;5012187;28;20225;-71
2021/09/26 05:03:08;;;;;;;8.53;7.47;;;15.90;99.90;;;;;;5011992;28;20181;-71
2021/09/26 05:05:33;;;;;;;7.87;6.67;;;15.90;99.90;;;;;;5011822;28;20574;-71
2021/09/26 05:07:59;;;;;;;7.77;6.80;;;15.90;99.90;;;;;;5010715;28;20162;-71
2021/09/26 05:10:24;;;;;;;8.60;7.40;;;15.90;99.90;;;;;;5010942;28;20169;-71
2021/09/26 05:12:50;;;;;;;6.93;6.23;;;15.90;99.90;;;;;;5012468;28;20695;-71
2021/09/26 05:15:15;;;;;;;8.53;7.40;;;16.00;99.90;;;;;;5011614;28;20200;-71
2021/09/26 05:17:41;;;;;;;6.17;5.57;;;16.00;99.90;;;;;;5011868;28;20190;-71
2021/09/26 05:20:08;;;;;;;9.37;6.50;;;16.00;99.90;;;;;;5011930;28;20197;-70
2021/09/26 05:22:34;;;;;;;8.37;7.30;;;16.00;99.90;;;;;;5011813;28;20229;-72
2021/09/26 05:24:59;;;;;;;9.93;7.90;;;16.00;99.90;;;;;;5011676;28;20625;-71
2021/09/26 05:27:25;;;;;;;7.07;6.30;;;16.00;99.90;;;;;;5011764;28;20405;-70
2021/09/26 05:29:51;;;;;;;7.67;6.13;;;16.00;99.90;;;;;;5011310;28;20161;-71
2021/09/26 05:32:17;;;;;;;7.63;6.40;;;16.00;99.90;;;;;;5011550;28;20174;-70
2021/09/26 05:34:42;;;;;;;9.97;6.83;;;16.10;99.90;;;;;;5011680;28;20206;-71
2021/09/26 05:37:08;;;;;;;8.60;5.43;;;16.10;99.90;;;;;;5011605;28;20588;-71
2021/09/26 05:39:33;;;;;;;7.67;5.80;;;16.10;99.90;;;;;;5011627;28;20180;-71
2021/09/26 05:42:03;;;;;;;9.10;7.43;;;16.10;99.90;;;;;;5011469;28;20217;-71
2021/09/26 05:44:30;;;;;;;7.07;6.33;;;16.20;99.90;;;;;;5011184;28;20167;-71
2021/09/26 05:46:55;;;;;;;9.07;7.30;;;16.20;99.90;;;;;;5011560;28;20504;-71
2021/09/26 05:49:21;;;;;;;7.63;5.90;;;16.20;99.90;;;;;;5011733;28;20490;-71
2021/09/26 05:51:46;;;;;;;7.30;6.07;;;16.30;99.90;;;;;;5011532;28;20176;-71
2021/09/26 05:54:12;;;;;;;9.80;7.30;;;16.30;99.90;;;;;;5011504;28;20173;-71
2021/09/26 05:56:38;;;;;;;7.00;5.93;;;16.40;99.90;;;;;;5011514;28;20609;-71
2021/09/26 05:59:03;;;;;;;6.70;6.03;;;16.40;99.90;;;;;;5011724;28;20428;-71
2021/09/26 06:01:29;;;;;;;7.53;6.27;;;16.50;99.90;;;;;;5011253;28;20300;-71
2021/09/26 06:03:54;;;;;;;9.17;7.40;;;16.50;99.90;;;;;;5011363;28;20166;-71
2021/09/26 06:06:21;;;;;;;6.73;5.90;;;16.50;99.90;;;;;;5011416;28;20230;-71
2021/09/26 06:08:46;;;;;;;8.37;6.27;;;16.50;99.90;;;;;;4994195;28;20491;-71
2021/09/26 06:11:12;;;;;;;7.67;6.73;;;16.60;99.90;;;;;;5011610;28;20418;-71
2021/09/26 06:13:37;;;;;;;7.33;6.10;;;16.60;99.90;;;;;;5011586;28;20209;-71
2021/09/26 06:16:03;;;;;;;10.53;7.60;;;16.70;99.90;;;;;;5011631;28;20557;-71
2021/09/26 06:18:29;;;;;;;7.23;6.00;;;16.70;99.90;;;;;;5011169;28;20194;-71
2021/09/26 06:20:55;;;;;;;7.63;6.20;;;16.80;99.90;;;;;;5010952;28;20199;-71
2021/09/26 06:23:21;;;;;;;7.10;6.40;;;16.80;99.90;;;;;;5011044;28;20525;-71
2021/09/26 06:25:47;;;;;;;6.87;5.93;;;17.00;99.90;;;;;;5010974;28;20195;-71
2021/09/26 06:28:12;;;;;;;7.33;5.80;;;16.90;99.90;;;;;;5011012;28;20520;-70
2021/09/26 06:30:37;;;;;;;10.70;6.77;;;17.10;99.90;;;;;;4993296;28;20422;-69
2021/09/26 06:33:04;;;;;;;6.20;5.03;;;17.20;99.90;;;;;;5010956;28;20764;-69
2021/09/26 06:35:30;;;;;;;10.40;7.80;;;17.20;99.90;;;;;;5010853;28;20203;-69
2021/09/26 06:37:55;;;;;;;6.47;5.87;;;17.60;99.90;;;;;;5010835;28;20457;-70
2021/09/26 06:40:21;;;;;;;10.10;6.73;;;18.30;99.90;;;;;;4993270;28;20993;-69
2021/09/26 06:42:48;;;;;;;7.30;5.77;;;18.80;99.90;;;;;;4995391;28;20255;-69
2021/09/26 06:45:13;;;;;;;6.67;5.63;;;19.70;99.90;;;;;;5014676;28;20191;-69
2021/09/26 06:47:39;;;;;;;6.10;5.30;;;20.60;99.90;;;;;;5014962;28;20469;-70
2021/09/26 06:50:06;;;;;;;5.60;4.97;;;20.80;99.90;;;;;;5014608;28;20173;-71
2021/09/26 06:52:32;;;;;;;6.33;5.17;;;21.00;99.90;;;;;;5014575;28;20170;-71
2021/09/26 06:54:57;;;;;;;5.10;4.40;;;21.10;99.90;;;;;;4996781;28;20913;-70
2021/09/26 06:57:23;;;;;;;5.70;5.10;;;20.90;99.90;;;;;;5014557;28;20170;-71
2021/09/26 06:59:48;;;;;;;6.00;4.70;;;21.40;99.90;;;;;;5014757;28;20173;-71
2021/09/26 07:02:17;;;;;;;4.87;4.40;;;21.80;99.90;;;;;;5014822;28;20164;-71
2021/09/26 07:04:43;;;;;;;5.40;4.53;;;21.80;99.90;;;;;;5014868;28;20195;-71
2021/09/26 07:07:09;;;;;;;4.33;3.50;;;21.30;99.90;;;;;;5014449;28;20757;-70
2021/09/26 07:09:34;;;;;;;5.40;4.53;;;22.50;99.90;;;;;;5014434;28;20168;-70
2021/09/26 07:12:00;;;;;;;5.80;4.70;;;22.10;99.90;;;;;;5014107;28;20254;-71
2021/09/26 07:14:26;;;;;;;5.00;4.50;;;22.90;99.90;;;;;;5014037;28;20515;-71
2021/09/26 07:16:51;;;;;;;5.23;4.73;;;23.70;99.90;;;;;;5014061;28;20172;-71
2021/09/26 07:19:18;;;;;;;6.03;4.63;;;23.70;99.90;;;;;;5013903;28;20194;-70
2021/09/26 07:21:43;;;;;;;4.97;4.47;;;23.20;99.90;;;;;;5013942;28;20195;-72
2021/09/26 07:24:09;;;;;;;5.20;4.70;;;24.00;99.90;;;;;;5013837;28;20906;-71
2021/09/26 07:26:34;;;;;;;4.13;3.83;;;23.90;99.90;;;;;;5013921;28;20660;-72
2021/09/26 07:29:00;;;;;;;4.23;3.93;;;24.00;99.90;;;;;;5014029;28;20634;-70
2021/09/26 07:31:25;;;;;;;4.57;3.70;;;24.60;99.90;;;;;;5013848;28;20199;-70
2021/09/26 07:33:51;;;;;;;5.30;4.80;;;24.00;99.90;;;;;;5014176;28;20217;-70
2021/09/26 07:36:17;;;;;;;4.80;4.37;;;24.30;99.90;;;;;;5013727;28;20192;-69
2021/09/26 07:38:42;;;;;;;4.33;3.93;;;24.90;99.90;;;;;;5013759;28;20172;-71
2021/09/26 07:41:08;;;;;;;5.17;4.73;;;24.50;99.90;;;;;;5013429;28;20199;-70
2021/09/26 07:43:33;;;;;;;4.23;3.83;;;23.70;99.90;;;;;;5013405;28;20172;-69
2021/09/26 07:46:02;;;;;;;4.30;3.90;;;24.60;99.90;;;;;;5013508;28;20180;-71
2021/09/26 07:48:27;;;;;;;5.13;4.67;;;24.30;99.90;;;;;;5013517;28;20175;-71
2021/09/26 07:50:53;;;;;;;3.67;3.37;;;24.10;99.90;;;;;;5013578;28;20415;-71
2021/09/26 07:53:19;;;;;;;4.80;4.40;;;24.90;99.90;;;;;;5013119;28;20168;-71
2021/09/26 07:55:45;;;;;;;4.53;4.13;;;24.90;99.90;;;;;;5013292;28;20682;-71
2021/09/26 07:58:17;;;;;;;3.07;2.80;;;24.10;99.90;;;;;;5013397;28;20422;-71
2021/09/26 08:00:43;;;;;;;4.57;4.17;;;24.70;99.90;;;;;;4995621;28;20294;-70
2021/09/26 08:03:09;;;;;;;3.53;3.23;;;24.90;99.90;;;;;;5013255;28;20493;-71
2021/09/26 08:05:38;;;;;;;4.27;3.90;;;24.50;99.90;;;;;;5013101;28;20184;-70
2021/09/26 08:08:03;;;;;;;3.80;3.50;;;24.40;99.90;;;;;;5013686;28;20168;-71
2021/09/26 08:10:29;;;;;;;3.67;3.37;;;24.70;99.90;;;;;;5013076;28;20991;-70
2021/09/26 08:12:54;;;;;;;3.63;3.33;;;25.20;99.90;;;;;;5008584;28;20260;-70
2021/09/26 08:15:20;;;;;;;3.77;3.47;;;24.90;99.90;;;;;;5011733;28;20222;-71
2021/09/26 08:17:46;;;;;;;3.30;3.10;;;24.80;99.90;;;;;;5011573;28;20242;-71
2021/09/26 08:20:13;;;;;;;2.80;2.60;;;25.40;99.90;;;;;;5013025;28;20606;-71
2021/09/26 08:22:39;;;;;;;3.87;3.57;;;25.40;99.90;;;;;;5012759;28;20183;-71
2021/09/26 08:25:07;;;;;;;2.63;2.43;;;25.80;99.90;;;;;;4995225;28;20430;-71
2021/09/26 08:27:37;;;;;;;3.13;2.93;;;25.90;99.90;;;;;;5013027;28;20859;-71
2021/09/26 08:30:07;;;;;;;2.90;2.70;;;25.90;99.90;;;;;;5012734;28;20415;-68
2021/09/26 08:32:34;;;;;;;3.00;2.80;;;25.80;99.90;;;;;;5012530;28;20910;-68
2021/09/26 08:34:59;;;;;;;2.83;2.63;;;26.40;99.90;;;;;;5012635;28;20485;-69
2021/09/26 08:37:25;;;;;;;3.00;2.80;;;26.40;99.90;;;;;;5012560;28;20407;-70
2021/09/26 08:39:50;;;;;;;2.83;2.63;;;26.50;99.90;;;;;;5012761;28;20164;-70
2021/09/26 08:42:18;;;;;;;3.27;3.07;;;26.00;99.90;;;;;;5012847;28;20173;-71
2021/09/26 08:44:43;;;;;;;3.20;2.90;;;26.10;99.90;;;;;;5013055;28;20571;-70
2021/09/26 08:47:09;;;;;;;4.10;3.80;;;25.80;99.90;;;;;;5012540;28;20400;-70
2021/09/26 08:49:35;;;;;;;3.53;2.93;;;25.10;99.90;;;;;;5012487;28;20262;-70
2021/09/26 08:52:01;;;;;;;2.97;2.70;;;24.90;99.90;;;;;;5012471;28;20414;-69
2021/09/26 08:54:27;;;;;;;3.20;2.90;;;24.80;99.90;;;;;;5012167;28;20411;-69
2021/09/26 08:56:53;;;;;;;3.37;3.07;;;24.60;99.90;;;;;;5012358;28;20407;-70
2021/09/26 08:59:18;;;;;;;3.97;3.47;;;25.10;99.90;;;;;;5012382;28;20710;-70
2021/09/26 09:01:44;;;;;;;4.07;3.40;;;25.20;99.90;;;;;;5011922;28;20273;-69
2021/09/26 09:04:10;;;;;;;3.93;3.63;;;25.10;99.90;;;;;;5011353;28;20171;-69
2021/09/26 09:06:41;;;;;;;3.37;3.07;;;25.70;99.90;;;;;;5011946;28;20435;-68
2021/09/26 09:09:19;;;;;;;4.00;3.53;;;25.40;99.90;;;;;;5012206;28;20176;-70
2021/09/26 09:12:04;;;;;;;3.53;3.20;;;25.90;99.90;;;;;;5012075;28;20505;-70
2021/09/26 09:14:50;;;;;;;3.83;3.53;;;25.60;99.90;;;;;;5011697;28;20398;-69
2021/09/26 09:17:36;;;;;;;3.60;3.30;;;25.60;99.90;;;;;;5012170;28;20522;-68
2021/09/26 09:20:13;;;;;;;3.50;3.20;;;25.60;99.90;;;;;;5011883;28;20402;-72
2021/09/26 09:22:41;;;;;;;3.30;3.00;;;25.00;99.90;;;;;;5011677;28;20466;-70
2021/09/26 09:25:07;;;;;;;3.90;3.53;;;25.10;99.90;;;;;;5011601;28;20837;-70
2021/09/26 09:27:33;;;;;;;2.70;2.50;;;25.20;99.90;;;;;;5012197;28;20446;-70
2021/09/26 09:29:58;;;;;;;3.50;3.20;;;24.70;99.90;;;;;;5012033;28;20438;-70
2021/09/26 09:32:27;;;;;;;3.80;3.50;;;24.40;99.90;;;;;;4994155;28;20275;-70
2021/09/26 09:34:52;;;;;;;4.67;3.30;;;24.40;99.90;;;;;;5011662;28;20650;-69
2021/09/26 09:37:20;;;;;;;4.07;3.70;;;24.20;99.90;;;;;;5011688;28;20413;-69
2021/09/26 09:40:24;;;;;;;3.17;2.97;;;24.50;99.90;;;;;;4993918;28;20275;-71
2021/09/26 09:42:54;;;;;;;2.90;2.70;;;24.80;99.90;;;;;;4970025;28;20814;-70
2021/09/26 09:45:30;;;;;;;2.77;2.57;;;24.50;99.90;;;;;;4970146;28;20428;-70
2021/09/26 09:48:11;;;;;;;3.30;3.10;;;24.70;99.90;;;;;;4970205;28;20407;-70
2021/09/26 09:50:41;;;;;;;2.90;2.70;;;24.10;99.90;;;;;;4970333;28;20502;-70
2021/09/26 09:53:17;;;;;;;4.03;2.87;;;23.80;99.90;;;;;;4969640;28;20416;-70
2021/09/26 09:55:44;;;;;;;2.63;2.43;;;23.80;99.90;;;;;;4970075;28;20890;-69
2021/09/26 09:58:13;;;;;;;2.77;2.57;;;23.70;99.90;;;;;;4970222;28;20913;-69
2021/09/26 10:00:48;;;;;;;2.67;2.47;;;23.80;99.90;;;;;;4990328;28;20488;-68
2021/09/26 10:03:38;;;;;;;3.13;2.83;;;23.70;99.90;;;;;;4993930;28;20410;-69
2021/09/26 10:06:20;;;;;;;3.03;2.70;;;23.80;99.90;;;;;;5011506;28;20931;-70
2021/09/26 10:08:50;;;;;;;2.60;2.40;;;23.70;99.90;;;;;;5011461;28;20411;-70
2021/09/26 10:11:15;;;;;;;2.50;2.30;;;23.60;99.90;;;;;;4993694;28;20794;-70
2021/09/26 10:13:41;;;;;;;3.00;2.80;;;23.70;99.90;;;;;;5011241;28;20408;-70
2021/09/26 10:16:08;;;;;;;2.97;2.67;;;23.60;99.90;;;;;;4993772;28;20703;-69
2021/09/26 10:18:35;;;;;;;2.60;2.40;;;23.30;99.90;;;;;;5015079;28;20197;-69
2021/09/26 10:21:03;;;;;;;2.90;2.63;;;23.40;99.90;;;;;;5015275;28;20860;-70
2021/09/26 10:23:29;;;;;;;2.23;2.03;;;23.20;99.90;;;;;;5014929;28;20483;-71
2021/09/26 10:25:56;;;;;;;2.67;2.47;;;23.20;99.90;;;;;;5015304;28;20441;-72
2021/09/26 10:28:26;;;;;;;2.80;2.53;;;23.20;99.90;;;;;;5015200;28;20171;-70
2021/09/26 10:30:53;;;;;;;2.60;2.40;;;23.40;99.90;;;;;;5015165;28;20414;-69
2021/09/26 10:33:19;;;;;;;2.93;2.63;;;23.40;99.90;;;;;;5015008;28;20512;-69
2021/09/26 10:35:45;;;;;;;2.70;2.50;;;23.50;99.90;;;;;;5015181;28;20419;-70
2021/09/26 10:38:14;;;;;;;2.50;2.30;;;23.90;99.90;;;;;;5014760;28;20777;-71
2021/09/26 10:40:40;;;;;;;2.80;2.60;;;24.00;99.90;;;;;;5015038;28;20283;-69
2021/09/26 10:43:30;;;;;;;2.30;2.10;;;24.20;99.90;;;;;;5014788;28;20437;-70
2021/09/26 10:46:15;;;;;;;2.73;2.53;;;24.20;99.90;;;;;;5015072;28;20427;-69
2021/09/26 10:48:58;;;;;;;3.23;1.90;;;24.30;99.90;;;;;;5014894;28;20483;-69
2021/09/26 10:52:00;;;;;;;2.43;2.23;;;24.30;99.90;;;;;;5014881;28;20496;-69
2021/09/26 10:54:30;;;;;;;2.10;1.97;;;24.40;99.90;;;;;;5014263;28;20414;-69
2021/09/26 10:57:08;;;;;;;3.53;3.27;;;24.30;99.90;;;;;;5014516;28;20401;-71
2021/09/26 10:59:40;;;;;;;2.23;2.03;;;24.40;99.90;;;;;;5014713;28;20398;-69
2021/09/26 11:02:25;;;;;;;2.90;2.50;;;24.40;99.90;;;;;;4980841;28;20456;-70
2021/09/26 11:04:55;;;;;;;2.30;2.20;;;24.50;99.90;;;;;;5014813;28;20430;-71
2021/09/26 11:07:31;;;;;;;2.90;2.17;;;24.20;99.90;;;;;;5014616;28;20410;-70
2021/09/26 11:10:03;;;;;;;1.77;1.67;;;24.00;99.90;;;;;;5014829;28;20412;-69
2021/09/26 11:12:48;;;;;;;2.07;1.93;;;23.90;99.90;;;;;;5014640;28;20787;-69
2021/09/26 11:15:22;;;;;;;1.77;1.67;;;23.90;99.90;;;;;;5014397;28;20460;-69
2021/09/26 11:17:53;;;;;;;2.70;2.37;;;24.10;99.90;;;;;;5014291;28;20640;-69
2021/09/26 11:20:25;;;;;;;2.50;2.30;;;24.00;99.90;;;;;;5014217;28;20487;-69
2021/09/26 11:23:06;;;;;;;2.57;2.37;;;24.00;99.90;;;;;;5014153;28;20434;-70
2021/09/26 11:25:56;;;;;;;4.50;2.60;;;24.20;99.90;;;;;;5014125;28;20434;-69
2021/09/26 11:28:36;;;;;;;2.83;2.40;;;24.30;99.90;;;;;;5013542;28;20403;-70
2021/09/26 11:31:09;;;;;;;2.50;2.30;;;24.20;99.90;;;;;;5014020;28;20491;-72
2021/09/26 11:33:56;;;;;;;2.00;1.90;;;24.20;99.90;;;;;;5013425;28;20840;-69
2021/09/26 11:36:24;;;;;;;2.27;2.07;;;24.10;99.90;;;;;;5013797;28;20543;-69
2021/09/26 11:38:50;;;;;;;2.10;1.90;;;23.90;99.90;;;;;;5014171;28;20411;-69
2021/09/26 11:41:31;;;;;;;2.50;2.30;;;24.10;99.90;;;;;;5013901;28;20462;-70
2021/09/26 11:44:03;;;;;;;2.50;2.30;;;24.10;99.90;;;;;;5013777;28;20169;-70
2021/09/26 11:46:30;;;;;;;3.07;2.80;;;23.90;99.90;;;;;;5013780;28;21010;-69
2021/09/26 11:49:07;;;;;;;2.40;2.20;;;24.00;99.90;;;;;;5013755;28;20411;-69
2021/09/26 11:51:34;;;;;;;2.63;2.17;;;24.10;99.90;;;;;;5013681;28;20467;-69
2021/09/26 11:54:05;;;;;;;2.30;2.10;;;24.00;99.90;;;;;;5013258;28;20454;-70
2021/09/26 11:56:33;;;;;;;2.50;2.30;;;24.10;99.90;;;;;;5013461;28;20437;-69
2021/09/26 11:59:11;;;;;;;2.20;2.00;;;24.20;99.90;;;;;;5013285;28;20443;-69
2021/09/26 12:01:38;;;;;;;2.70;2.50;;;24.40;99.90;;;;;;5013511;28;20446;-69
2021/09/26 12:04:04;;;;;;;2.90;2.67;;;24.40;99.90;;;;;;5013099;28;20400;-69
2021/09/26 12:06:30;;;;;;;2.70;2.13;;;24.50;99.90;;;;;;5013349;28;20429;-70
2021/09/26 12:08:56;;;;;;;2.43;2.23;;;24.50;99.90;;;;;;5013294;28;20415;-72
2021/09/26 12:11:21;;;;;;;2.90;2.70;;;24.40;99.90;;;;;;5013149;28;20180;-71
2021/09/26 12:13:50;;;;;;;2.77;2.57;;;24.20;99.90;;;;;;5012984;28;20215;-70
2021/09/26 12:16:18;;;;;;;2.20;2.00;;;24.20;99.90;;;;;;5013142;28;20194;-71
2021/09/26 12:18:59;;;;;;;3.00;2.20;;;24.40;99.90;;;;;;5013122;28;20529;-71
2021/09/26 12:21:30;;;;;;;2.97;2.77;;;24.40;99.90;;;;;;5012959;28;20457;-70
2021/09/26 12:24:06;;;;;;;2.47;2.27;;;24.30;99.90;;;;;;5012711;28;20421;-69
2021/09/26 12:26:45;;;;;;;2.83;2.63;;;24.40;99.90;;;;;;5012926;28;20470;-71
2021/09/26 12:29:13;;;;;;;2.60;2.40;;;24.50;99.90;;;;;;5013038;28;20404;-70
2021/09/26 12:31:42;;;;;;;2.90;2.53;;;24.60;99.90;;;;;;5012948;28;20481;-71
2021/09/26 12:34:10;;;;;;;2.70;2.50;;;24.60;99.90;;;;;;5012457;28;20459;-69
2021/09/26 12:36:40;;;;;;;2.80;2.60;;;24.50;99.90;;;;;;4995163;28;20432;-71
2021/09/26 12:39:16;;;;;;;2.33;1.60;;;24.70;99.90;;;;;;4994901;28;20443;-71
2021/09/26 12:41:49;;;;;;;2.30;2.10;;;24.80;99.90;;;;;;5012304;28;20505;-71
2021/09/26 12:44:32;;;;;;;3.30;3.00;;;24.80;99.90;;;;;;5012269;28;20402;-71
2021/09/26 12:47:11;;;;;;;2.80;2.60;;;24.80;99.90;;;;;;5012731;28;20420;-70
2021/09/26 12:49:48;;;;;;;2.77;2.50;;;24.90;99.90;;;;;;4994875;28;20466;-71
2021/09/26 12:52:26;;;;;;;3.27;3.00;;;24.90;99.90;;;;;;5012441;28;20747;-70
2021/09/26 12:54:57;;;;;;;3.03;2.47;;;25.20;99.90;;;;;;5012498;28;20488;-70